Terminal Aerodrome Forecast
Issued by NWS

Home | Current Version | Previous Version | Text Only | Print | Product List | Glossary On
Versions: 1 2 3 4 5 6 7 8 9 10 11 12 13 14 15 16 17 18
607
FTUS46 KPDT 231725
TAFRDM
TAF
KRDM 231725Z 2318/2418 31006KT P6SM SKC
     FM232200 32015G25KT P6SM SKC
     FM240500 33006KT P6SM SKC
     FM241600 32015G25KT P6SM SKC=

USA.gov is the U.S. government's official web portal to all federal, state and local government web resources and services.